sensor_id;sensor_type;location;lat;lon;timestamp;P1;durP1;ratioP1;P2;durP2;ratioP2
11481;SDS011;5797;51.662;6.748;2023-04-03T00:00:42;3.97;;;2.10;;
11481;SDS011;5797;51.662;6.748;2023-04-03T00:03:11;3.20;;;2.00;;
11481;SDS011;5797;51.662;6.748;2023-04-03T00:05:39;4.80;;;2.63;;
11481;SDS011;5797;51.662;6.748;2023-04-03T00:08:08;4.47;;;2.20;;
11481;SDS011;5797;51.662;6.748;2023-04-03T00:10:36;2.23;;;2.00;;
11481;SDS011;5797;51.662;6.748;2023-04-03T00:13:07;4.03;;;2.37;;
11481;SDS011;5797;51.662;6.748;2023-04-03T00:15:36;3.97;;;2.30;;
11481;SDS011;5797;51.662;6.748;2023-04-03T00:18:05;3.77;;;2.43;;
11481;SDS011;5797;51.662;6.748;2023-04-03T00:20:34;6.33;;;2.40;;
11481;SDS011;5797;51.662;6.748;2023-04-03T00:23:02;5.57;;;2.17;;
11481;SDS011;5797;51.662;6.748;2023-04-03T00:25:31;4.83;;;2.20;;
11481;SDS011;5797;51.662;6.748;2023-04-03T00:27:59;2.50;;;2.03;;
11481;SDS011;5797;51.662;6.748;2023-04-03T00:30:29;2.87;;;2.00;;
11481;SDS011;5797;51.662;6.748;2023-04-03T00:32:57;5.70;;;2.20;;
11481;SDS011;5797;51.662;6.748;2023-04-03T00:35:26;2.37;;;2.17;;
11481;SDS011;5797;51.662;6.748;2023-04-03T00:37:54;3.30;;;2.37;;
11481;SDS011;5797;51.662;6.748;2023-04-03T00:40:24;3.87;;;2.50;;
11481;SDS011;5797;51.662;6.748;2023-04-03T00:42:55;2.93;;;1.90;;
11481;SDS011;5797;51.662;6.748;2023-04-03T00:45:26;2.33;;;2.10;;
11481;SDS011;5797;51.662;6.748;2023-04-03T00:48:02;3.63;;;2.57;;
11481;SDS011;5797;51.662;6.748;2023-04-03T00:50:34;7.70;;;2.50;;
11481;SDS011;5797;51.662;6.748;2023-04-03T00:53:04;3.50;;;2.33;;
11481;SDS011;5797;51.662;6.748;2023-04-03T00:55:34;4.47;;;2.20;;
11481;SDS011;5797;51.662;6.748;2023-04-03T00:58:03;3.90;;;2.20;;
11481;SDS011;5797;51.662;6.748;2023-04-03T01:00:35;2.80;;;1.90;;
11481;SDS011;5797;51.662;6.748;2023-04-03T01:03:04;2.70;;;1.90;;
11481;SDS011;5797;51.662;6.748;2023-04-03T01:05:33;3.50;;;2.00;;
11481;SDS011;5797;51.662;6.748;2023-04-03T01:08:01;3.13;;;1.87;;
11481;SDS011;5797;51.662;6.748;2023-04-03T01:10:30;3.13;;;2.00;;
11481;SDS011;5797;51.662;6.748;2023-04-03T01:12:58;2.70;;;1.90;;
11481;SDS011;5797;51.662;6.748;2023-04-03T01:15:28;3.73;;;2.00;;
11481;SDS011;5797;51.662;6.748;2023-04-03T01:18:03;2.77;;;2.23;;
11481;SDS011;5797;51.662;6.748;2023-04-03T01:20:36;2.43;;;1.90;;
11481;SDS011;5797;51.662;6.748;2023-04-03T01:23:37;3.27;;;2.00;;
11481;SDS011;5797;51.662;6.748;2023-04-03T01:26:22;2.03;;;1.80;;
11481;SDS011;5797;51.662;6.748;2023-04-03T01:28:53;3.17;;;2.23;;
11481;SDS011;5797;51.662;6.748;2023-04-03T01:31:23;4.83;;;2.17;;
11481;SDS011;5797;51.662;6.748;2023-04-03T01:33:55;3.63;;;1.73;;
11481;SDS011;5797;51.662;6.748;2023-04-03T01:36:25;2.00;;;1.60;;
11481;SDS011;5797;51.662;6.748;2023-04-03T01:38:55;2.47;;;1.90;;
11481;SDS011;5797;51.662;6.748;2023-04-03T01:41:25;5.20;;;1.93;;
11481;SDS011;5797;51.662;6.748;2023-04-03T01:43:59;3.93;;;1.97;;
11481;SDS011;5797;51.662;6.748;2023-04-03T01:46:27;3.23;;;1.70;;
11481;SDS011;5797;51.662;6.748;2023-04-03T01:48:57;2.93;;;1.60;;
11481;SDS011;5797;51.662;6.748;2023-04-03T01:51:25;2.30;;;1.57;;
11481;SDS011;5797;51.662;6.748;2023-04-03T01:53:54;2.03;;;1.60;;
11481;SDS011;5797;51.662;6.748;2023-04-03T01:56:22;1.87;;;1.67;;
11481;SDS011;5797;51.662;6.748;2023-04-03T01:58:50;2.30;;;2.10;;
11481;SDS011;5797;51.662;6.748;2023-04-03T02:01:19;2.90;;;1.90;;
11481;SDS011;5797;51.662;6.748;2023-04-03T02:03:48;2.73;;;2.03;;
11481;SDS011;5797;51.662;6.748;2023-04-03T02:06:18;2.90;;;1.60;;
11481;SDS011;5797;51.662;6.748;2023-04-03T02:08:46;2.07;;;1.63;;
11481;SDS011;5797;51.662;6.748;2023-04-03T02:11:14;4.20;;;1.67;;
11481;SDS011;5797;51.662;6.748;2023-04-03T02:13:42;3.13;;;1.73;;
11481;SDS011;5797;51.662;6.748;2023-04-03T02:16:11;2.23;;;2.03;;
11481;SDS011;5797;51.662;6.748;2023-04-03T02:18:41;3.33;;;1.67;;
11481;SDS011;5797;51.662;6.748;2023-04-03T02:21:09;4.70;;;1.67;;
11481;SDS011;5797;51.662;6.748;2023-04-03T02:23:39;2.77;;;1.83;;
11481;SDS011;5797;51.662;6.748;2023-04-03T02:26:08;1.60;;;1.50;;
11481;SDS011;5797;51.662;6.748;2023-04-03T02:28:37;7.17;;;2.20;;
11481;SDS011;5797;51.662;6.748;2023-04-03T02:31:06;2.67;;;1.77;;
11481;SDS011;5797;51.662;6.748;2023-04-03T02:33:36;1.97;;;1.53;;
11481;SDS011;5797;51.662;6.748;2023-04-03T02:36:08;4.73;;;1.70;;
11481;SDS011;5797;51.662;6.748;2023-04-03T02:38:40;6.80;;;1.77;;
11481;SDS011;5797;51.662;6.748;2023-04-03T02:41:10;2.07;;;1.47;;
11481;SDS011;5797;51.662;6.748;2023-04-03T02:43:39;6.67;;;1.60;;
11481;SDS011;5797;51.662;6.748;2023-04-03T02:46:08;3.50;;;1.83;;
11481;SDS011;5797;51.662;6.748;2023-04-03T02:48:36;2.97;;;1.73;;
11481;SDS011;5797;51.662;6.748;2023-04-03T02:51:05;2.27;;;1.60;;
11481;SDS011;5797;51.662;6.748;2023-04-03T02:53:33;3.60;;;1.77;;
11481;SDS011;5797;51.662;6.748;2023-04-03T02:56:10;3.10;;;1.80;;
11481;SDS011;5797;51.662;6.748;2023-04-03T02:58:38;2.90;;;1.77;;
11481;SDS011;5797;51.662;6.748;2023-04-03T03:01:08;2.30;;;1.50;;
11481;SDS011;5797;51.662;6.748;2023-04-03T03:03:36;3.13;;;1.50;;
11481;SDS011;5797;51.662;6.748;2023-04-03T03:06:05;3.13;;;1.60;;
11481;SDS011;5797;51.662;6.748;2023-04-03T03:08:35;6.47;;;1.50;;
11481;SDS011;5797;51.662;6.748;2023-04-03T03:11:04;1.77;;;1.47;;
11481;SDS011;5797;51.662;6.748;2023-04-03T03:13:34;3.07;;;1.60;;
11481;SDS011;5797;51.662;6.748;2023-04-03T03:16:02;3.00;;;1.77;;
11481;SDS011;5797;51.662;6.748;2023-04-03T03:18:31;3.07;;;1.93;;
11481;SDS011;5797;51.662;6.748;2023-04-03T03:21:01;3.30;;;1.70;;
11481;SDS011;5797;51.662;6.748;2023-04-03T03:23:30;3.00;;;1.63;;
11481;SDS011;5797;51.662;6.748;2023-04-03T03:26:00;2.30;;;2.10;;
11481;SDS011;5797;51.662;6.748;2023-04-03T03:28:30;2.03;;;1.43;;
11481;SDS011;5797;51.662;6.748;2023-04-03T03:31:00;6.67;;;1.90;;
11481;SDS011;5797;51.662;6.748;2023-04-03T03:33:29;7.73;;;1.50;;
11481;SDS011;5797;51.662;6.748;2023-04-03T03:35:59;3.83;;;1.70;;
11481;SDS011;5797;51.662;6.748;2023-04-03T03:38:28;4.10;;;1.90;;
11481;SDS011;5797;51.662;6.748;2023-04-03T03:40:58;2.40;;;1.33;;
11481;SDS011;5797;51.662;6.748;2023-04-03T03:43:27;4.37;;;1.93;;
11481;SDS011;5797;51.662;6.748;2023-04-03T03:45:56;2.77;;;1.60;;
11481;SDS011;5797;51.662;6.748;2023-04-03T03:48:26;3.20;;;2.00;;
11481;SDS011;5797;51.662;6.748;2023-04-03T03:50:55;3.10;;;1.60;;
11481;SDS011;5797;51.662;6.748;2023-04-03T03:53:28;5.07;;;1.40;;
11481;SDS011;5797;51.662;6.748;2023-04-03T03:56:01;2.07;;;1.27;;
11481;SDS011;5797;51.662;6.748;2023-04-03T03:58:30;5.37;;;1.60;;
11481;SDS011;5797;51.662;6.748;2023-04-03T04:01:00;3.53;;;1.60;;
11481;SDS011;5797;51.662;6.748;2023-04-03T04:03:31;4.00;;;1.37;;
11481;SDS011;5797;51.662;6.748;2023-04-03T04:06:01;2.63;;;1.70;;
11481;SDS011;5797;51.662;6.748;2023-04-03T04:08:29;2.80;;;1.60;;
11481;SDS011;5797;51.662;6.748;2023-04-03T04:10:58;1.97;;;1.40;;
11481;SDS011;5797;51.662;6.748;2023-04-03T04:13:28;2.07;;;1.37;;
11481;SDS011;5797;51.662;6.748;2023-04-03T04:15:57;6.40;;;1.97;;
11481;SDS011;5797;51.662;6.748;2023-04-03T04:18:26;4.10;;;1.50;;
11481;SDS011;5797;51.662;6.748;2023-04-03T04:20:55;2.60;;;1.87;;
11481;SDS011;5797;51.662;6.748;2023-04-03T04:23:24;3.30;;;1.63;;
11481;SDS011;5797;51.662;6.748;2023-04-03T04:25:53;5.30;;;1.70;;
11481;SDS011;5797;51.662;6.748;2023-04-03T04:28:22;4.13;;;1.40;;
11481;SDS011;5797;51.662;6.748;2023-04-03T04:30:53;3.33;;;1.80;;
11481;SDS011;5797;51.662;6.748;2023-04-03T04:33:24;3.10;;;2.13;;
11481;SDS011;5797;51.662;6.748;2023-04-03T04:35:53;2.03;;;1.40;;
11481;SDS011;5797;51.662;6.748;2023-04-03T04:38:23;1.57;;;1.47;;
11481;SDS011;5797;51.662;6.748;2023-04-03T04:40:53;3.60;;;2.00;;
11481;SDS011;5797;51.662;6.748;2023-04-03T04:43:22;3.07;;;1.70;;
11481;SDS011;5797;51.662;6.748;2023-04-03T04:46:00;2.17;;;1.50;;
11481;SDS011;5797;51.662;6.748;2023-04-03T04:48:32;2.17;;;1.77;;
11481;SDS011;5797;51.662;6.748;2023-04-03T04:51:01;6.57;;;2.00;;
11481;SDS011;5797;51.662;6.748;2023-04-03T04:53:31;4.53;;;1.70;;
11481;SDS011;5797;51.662;6.748;2023-04-03T04:55:59;6.77;;;1.57;;
11481;SDS011;5797;51.662;6.748;2023-04-03T04:58:29;2.33;;;1.67;;
11481;SDS011;5797;51.662;6.748;2023-04-03T05:00:58;3.57;;;1.50;;
11481;SDS011;5797;51.662;6.748;2023-04-03T05:03:29;3.57;;;1.53;;
11481;SDS011;5797;51.662;6.748;2023-04-03T05:05:58;8.37;;;1.80;;
11481;SDS011;5797;51.662;6.748;2023-04-03T05:08:28;4.00;;;2.67;;
11481;SDS011;5797;51.662;6.748;2023-04-03T05:10:58;2.33;;;1.87;;
11481;SDS011;5797;51.662;6.748;2023-04-03T05:13:27;4.20;;;1.97;;
11481;SDS011;5797;51.662;6.748;2023-04-03T05:15:56;5.57;;;2.03;;
11481;SDS011;5797;51.662;6.748;2023-04-03T05:18:25;4.23;;;1.97;;
11481;SDS011;5797;51.662;6.748;2023-04-03T05:20:57;6.40;;;1.97;;
11481;SDS011;5797;51.662;6.748;2023-04-03T05:23:26;4.83;;;2.00;;
11481;SDS011;5797;51.662;6.748;2023-04-03T05:25:56;5.67;;;2.10;;
11481;SDS011;5797;51.662;6.748;2023-04-03T05:28:27;3.27;;;2.17;;
11481;SDS011;5797;51.662;6.748;2023-04-03T05:30:55;4.90;;;1.83;;
11481;SDS011;5797;51.662;6.748;2023-04-03T05:33:33;2.23;;;1.40;;
11481;SDS011;5797;51.662;6.748;2023-04-03T05:36:04;7.40;;;2.53;;
11481;SDS011;5797;51.662;6.748;2023-04-03T05:38:37;3.10;;;1.80;;
11481;SDS011;5797;51.662;6.748;2023-04-03T05:41:06;5.37;;;2.73;;
11481;SDS011;5797;51.662;6.748;2023-04-03T05:43:36;4.27;;;2.37;;
11481;SDS011;5797;51.662;6.748;2023-04-03T05:46:09;7.40;;;2.43;;
11481;SDS011;5797;51.662;6.748;2023-04-03T05:48:39;4.13;;;2.37;;
11481;SDS011;5797;51.662;6.748;2023-04-03T05:51:13;4.67;;;2.00;;
11481;SDS011;5797;51.662;6.748;2023-04-03T05:53:43;4.63;;;2.13;;
11481;SDS011;5797;51.662;6.748;2023-04-03T05:56:12;1.70;;;1.60;;
11481;SDS011;5797;51.662;6.748;2023-04-03T05:58:42;5.13;;;2.00;;
11481;SDS011;5797;51.662;6.748;2023-04-03T06:01:11;5.87;;;1.87;;
11481;SDS011;5797;51.662;6.748;2023-04-03T06:03:40;5.50;;;1.73;;
11481;SDS011;5797;51.662;6.748;2023-04-03T06:06:11;5.70;;;2.27;;
11481;SDS011;5797;51.662;6.748;2023-04-03T06:08:40;4.67;;;2.43;;
11481;SDS011;5797;51.662;6.748;2023-04-03T06:11:11;3.73;;;1.73;;
11481;SDS011;5797;51.662;6.748;2023-04-03T06:13:39;4.80;;;1.90;;
11481;SDS011;5797;51.662;6.748;2023-04-03T06:16:09;2.87;;;1.77;;
11481;SDS011;5797;51.662;6.748;2023-04-03T06:18:41;4.37;;;1.40;;
11481;SDS011;5797;51.662;6.748;2023-04-03T06:21:10;4.60;;;1.70;;
11481;SDS011;5797;51.662;6.748;2023-04-03T06:23:38;3.37;;;1.60;;
11481;SDS011;5797;51.662;6.748;2023-04-03T06:26:07;3.10;;;1.37;;
11481;SDS011;5797;51.662;6.748;2023-04-03T06:28:35;3.17;;;1.90;;
11481;SDS011;5797;51.662;6.748;2023-04-03T06:31:04;4.90;;;1.80;;
11481;SDS011;5797;51.662;6.748;2023-04-03T06:33:33;5.53;;;2.00;;
11481;SDS011;5797;51.662;6.748;2023-04-03T06:36:03;6.27;;;1.63;;
11481;SDS011;5797;51.662;6.748;2023-04-03T06:38:32;4.60;;;1.90;;
11481;SDS011;5797;51.662;6.748;2023-04-03T06:41:01;9.70;;;1.73;;
11481;SDS011;5797;51.662;6.748;2023-04-03T06:43:29;4.70;;;1.80;;
11481;SDS011;5797;51.662;6.748;2023-04-03T06:46:00;5.30;;;1.30;;
11481;SDS011;5797;51.662;6.748;2023-04-03T06:48:28;6.57;;;1.80;;
11481;SDS011;5797;51.662;6.748;2023-04-03T06:50:58;3.93;;;1.87;;
11481;SDS011;5797;51.662;6.748;2023-04-03T06:53:27;6.30;;;1.80;;
11481;SDS011;5797;51.662;6.748;2023-04-03T06:55:55;3.77;;;1.97;;
11481;SDS011;5797;51.662;6.748;2023-04-03T06:58:23;4.00;;;1.73;;
11481;SDS011;5797;51.662;6.748;2023-04-03T07:00:51;2.17;;;1.53;;
11481;SDS011;5797;51.662;6.748;2023-04-03T07:03:20;4.73;;;1.90;;
11481;SDS011;5797;51.662;6.748;2023-04-03T07:05:48;5.07;;;1.70;;
11481;SDS011;5797;51.662;6.748;2023-04-03T07:08:18;8.30;;;2.33;;
11481;SDS011;5797;51.662;6.748;2023-04-03T07:10:46;2.63;;;1.90;;
11481;SDS011;5797;51.662;6.748;2023-04-03T07:13:14;4.00;;;1.80;;
11481;SDS011;5797;51.662;6.748;2023-04-03T07:15:43;4.63;;;1.80;;
11481;SDS011;5797;51.662;6.748;2023-04-03T07:18:11;4.67;;;1.87;;
11481;SDS011;5797;51.662;6.748;2023-04-03T07:20:40;5.33;;;1.70;;
11481;SDS011;5797;51.662;6.748;2023-04-03T07:23:08;1.87;;;1.33;;
11481;SDS011;5797;51.662;6.748;2023-04-03T07:25:40;3.23;;;1.70;;
11481;SDS011;5797;51.662;6.748;2023-04-03T07:28:10;6.17;;;1.90;;
11481;SDS011;5797;51.662;6.748;2023-04-03T07:30:42;5.87;;;1.73;;
11481;SDS011;5797;51.662;6.748;2023-04-03T07:33:12;3.43;;;1.73;;
11481;SDS011;5797;51.662;6.748;2023-04-03T07:35:42;2.90;;;1.70;;
11481;SDS011;5797;51.662;6.748;2023-04-03T07:38:10;2.70;;;1.60;;
11481;SDS011;5797;51.662;6.748;2023-04-03T07:40:40;8.47;;;2.07;;
11481;SDS011;5797;51.662;6.748;2023-04-03T07:43:13;3.80;;;1.70;;
11481;SDS011;5797;51.662;6.748;2023-04-03T07:45:42;3.07;;;1.97;;
11481;SDS011;5797;51.662;6.748;2023-04-03T07:48:12;4.67;;;1.83;;
11481;SDS011;5797;51.662;6.748;2023-04-03T07:50:40;4.57;;;2.00;;
11481;SDS011;5797;51.662;6.748;2023-04-03T07:53:09;2.60;;;1.80;;
11481;SDS011;5797;51.662;6.748;2023-04-03T07:55:37;3.03;;;1.70;;
11481;SDS011;5797;51.662;6.748;2023-04-03T07:58:11;3.23;;;1.83;;
11481;SDS011;5797;51.662;6.748;2023-04-03T08:00:41;4.37;;;1.80;;
11481;SDS011;5797;51.662;6.748;2023-04-03T08:03:10;4.03;;;1.70;;
11481;SDS011;5797;51.662;6.748;2023-04-03T08:05:39;4.00;;;1.87;;
11481;SDS011;5797;51.662;6.748;2023-04-03T08:08:09;2.10;;;1.43;;
11481;SDS011;5797;51.662;6.748;2023-04-03T08:10:39;3.27;;;1.50;;
11481;SDS011;5797;51.662;6.748;2023-04-03T08:13:08;4.30;;;1.70;;
11481;SDS011;5797;51.662;6.748;2023-04-03T08:15:38;5.50;;;1.80;;
11481;SDS011;5797;51.662;6.748;2023-04-03T08:18:07;5.57;;;1.53;;
11481;SDS011;5797;51.662;6.748;2023-04-03T08:20:35;6.03;;;1.93;;
11481;SDS011;5797;51.662;6.748;2023-04-03T08:23:03;2.00;;;1.17;;
11481;SDS011;5797;51.662;6.748;2023-04-03T08:25:32;2.53;;;1.70;;
11481;SDS011;5797;51.662;6.748;2023-04-03T08:28:00;2.10;;;1.20;;
11481;SDS011;5797;51.662;6.748;2023-04-03T08:30:30;5.67;;;1.70;;
11481;SDS011;5797;51.662;6.748;2023-04-03T08:32:59;3.47;;;1.63;;
11481;SDS011;5797;51.662;6.748;2023-04-03T08:35:28;5.27;;;1.67;;
11481;SDS011;5797;51.662;6.748;2023-04-03T08:37:56;3.70;;;1.70;;
11481;SDS011;5797;51.662;6.748;2023-04-03T08:40:25;2.43;;;1.40;;
11481;SDS011;5797;51.662;6.748;2023-04-03T08:42:57;1.97;;;1.17;;
11481;SDS011;5797;51.662;6.748;2023-04-03T08:45:37;5.73;;;1.57;;
11481;SDS011;5797;51.662;6.748;2023-04-03T08:48:12;2.60;;;1.47;;
11481;SDS011;5797;51.662;6.748;2023-04-03T08:50:43;2.80;;;1.30;;
11481;SDS011;5797;51.662;6.748;2023-04-03T08:53:14;1.30;;;1.07;;
11481;SDS011;5797;51.662;6.748;2023-04-03T08:55:44;2.33;;;1.10;;
11481;SDS011;5797;51.662;6.748;2023-04-03T08:58:15;2.43;;;1.20;;
11481;SDS011;5797;51.662;6.748;2023-04-03T09:00:46;2.17;;;1.37;;
11481;SDS011;5797;51.662;6.748;2023-04-03T09:03:17;1.90;;;1.20;;
11481;SDS011;5797;51.662;6.748;2023-04-03T09:05:48;2.13;;;1.53;;
11481;SDS011;5797;51.662;6.748;2023-04-03T09:08:21;6.33;;;1.60;;
11481;SDS011;5797;51.662;6.748;2023-04-03T09:10:57;2.40;;;1.37;;
11481;SDS011;5797;51.662;6.748;2023-04-03T09:13:30;3.03;;;1.30;;
11481;SDS011;5797;51.662;6.748;2023-04-03T09:16:05;1.30;;;1.20;;
11481;SDS011;5797;51.662;6.748;2023-04-03T09:18:43;2.00;;;1.20;;
11481;SDS011;5797;51.662;6.748;2023-04-03T09:21:15;2.13;;;1.07;;
11481;SDS011;5797;51.662;6.748;2023-04-03T09:23:46;3.10;;;1.13;;
11481;SDS011;5797;51.662;6.748;2023-04-03T09:26:16;2.90;;;1.03;;
11481;SDS011;5797;51.662;6.748;2023-04-03T09:28:47;4.27;;;1.30;;
11481;SDS011;5797;51.662;6.748;2023-04-03T09:31:22;3.07;;;1.10;;
11481;SDS011;5797;51.662;6.748;2023-04-03T09:33:52;1.53;;;1.00;;
11481;SDS011;5797;51.662;6.748;2023-04-03T09:36:42;3.33;;;1.40;;
11481;SDS011;5797;51.662;6.748;2023-04-03T09:39:13;2.60;;;1.20;;
11481;SDS011;5797;51.662;6.748;2023-04-03T09:41:43;4.50;;;1.33;;
11481;SDS011;5797;51.662;6.748;2023-04-03T09:44:24;1.50;;;1.20;;
11481;SDS011;5797;51.662;6.748;2023-04-03T09:46:55;2.50;;;1.17;;
11481;SDS011;5797;51.662;6.748;2023-04-03T09:49:23;2.57;;;1.03;;
11481;SDS011;5797;51.662;6.748;2023-04-03T09:51:52;3.87;;;1.47;;
11481;SDS011;5797;51.662;6.748;2023-04-03T09:54:24;2.10;;;1.13;;
11481;SDS011;5797;51.662;6.748;2023-04-03T09:57:06;4.20;;;1.00;;
11481;SDS011;5797;51.662;6.748;2023-04-03T09:59:37;2.60;;;1.03;;
11481;SDS011;5797;51.662;6.748;2023-04-03T10:02:28;1.63;;;1.10;;
11481;SDS011;5797;51.662;6.748;2023-04-03T10:05:00;2.63;;;1.10;;
11481;SDS011;5797;51.662;6.748;2023-04-03T10:07:33;3.33;;;1.30;;
11481;SDS011;5797;51.662;6.748;2023-04-03T10:10:22;2.97;;;1.00;;
11481;SDS011;5797;51.662;6.748;2023-04-03T10:13:03;1.80;;;1.07;;
11481;SDS011;5797;51.662;6.748;2023-04-03T10:15:34;2.43;;;1.33;;
11481;SDS011;5797;51.662;6.748;2023-04-03T10:18:06;1.77;;;1.10;;
11481;SDS011;5797;51.662;6.748;2023-04-03T10:20:50;1.23;;;1.00;;
11481;SDS011;5797;51.662;6.748;2023-04-03T10:23:21;1.70;;;1.20;;
11481;SDS011;5797;51.662;6.748;2023-04-03T10:25:58;1.70;;;1.00;;
11481;SDS011;5797;51.662;6.748;2023-04-03T10:28:34;1.20;;;1.00;;
11481;SDS011;5797;51.662;6.748;2023-04-03T10:31:10;2.27;;;1.10;;
11481;SDS011;5797;51.662;6.748;2023-04-03T10:33:47;2.83;;;1.20;;
11481;SDS011;5797;51.662;6.748;2023-04-03T10:36:25;1.43;;;1.20;;
11481;SDS011;5797;51.662;6.748;2023-04-03T10:39:04;1.97;;;1.20;;
11481;SDS011;5797;51.662;6.748;2023-04-03T10:41:46;2.93;;;1.30;;
11481;SDS011;5797;51.662;6.748;2023-04-03T10:44:25;2.13;;;1.40;;
11481;SDS011;5797;51.662;6.748;2023-04-03T10:46:59;2.73;;;1.10;;
11481;SDS011;5797;51.662;6.748;2023-04-03T10:49:35;2.07;;;1.00;;
11481;SDS011;5797;51.662;6.748;2023-04-03T10:52:17;4.90;;;1.10;;
11481;SDS011;5797;51.662;6.748;2023-04-03T10:54:50;2.00;;;1.00;;
11481;SDS011;5797;51.662;6.748;2023-04-03T10:57:24;2.03;;;1.20;;
11481;SDS011;5797;51.662;6.748;2023-04-03T10:59:54;1.70;;;1.03;;
11481;SDS011;5797;51.662;6.748;2023-04-03T11:02:26;1.80;;;0.93;;
11481;SDS011;5797;51.662;6.748;2023-04-03T11:04:59;1.20;;;1.00;;
11481;SDS011;5797;51.662;6.748;2023-04-03T11:07:32;1.87;;;1.20;;
11481;SDS011;5797;51.662;6.748;2023-04-03T11:10:03;2.30;;;1.30;;
11481;SDS011;5797;51.662;6.748;2023-04-03T11:12:41;3.10;;;1.40;;
11481;SDS011;5797;51.662;6.748;2023-04-03T11:15:14;1.97;;;1.13;;
11481;SDS011;5797;51.662;6.748;2023-04-03T11:17:48;2.43;;;1.17;;
11481;SDS011;5797;51.662;6.748;2023-04-03T11:20:21;1.57;;;1.13;;
11481;SDS011;5797;51.662;6.748;2023-04-03T11:22:57;2.17;;;1.13;;
11481;SDS011;5797;51.662;6.748;2023-04-03T11:25:30;3.00;;;1.20;;
11481;SDS011;5797;51.662;6.748;2023-04-03T11:28:00;1.40;;;1.10;;
11481;SDS011;5797;51.662;6.748;2023-04-03T11:30:31;2.23;;;1.30;;
11481;SDS011;5797;51.662;6.748;2023-04-03T11:33:05;1.47;;;1.10;;
11481;SDS011;5797;51.662;6.748;2023-04-03T11:35:53;3.40;;;1.23;;
11481;SDS011;5797;51.662;6.748;2023-04-03T11:38:25;3.60;;;1.30;;
11481;SDS011;5797;51.662;6.748;2023-04-03T11:40:56;2.77;;;1.20;;
11481;SDS011;5797;51.662;6.748;2023-04-03T11:43:26;1.93;;;1.10;;
11481;SDS011;5797;51.662;6.748;2023-04-03T11:45:57;1.97;;;1.10;;
11481;SDS011;5797;51.662;6.748;2023-04-03T12:03:34;2.53;;;1.47;;
11481;SDS011;5797;51.662;6.748;2023-04-03T12:09:51;3.03;;;1.20;;
11481;SDS011;5797;51.662;6.748;2023-04-03T12:12:27;2.37;;;1.20;;
11481;SDS011;5797;51.662;6.748;2023-04-03T12:15:17;1.47;;;1.17;;
11481;SDS011;5797;51.662;6.748;2023-04-03T12:17:48;4.10;;;1.27;;
11481;SDS011;5797;51.662;6.748;2023-04-03T12:23:27;3.70;;;1.73;;
11481;SDS011;5797;51.662;6.748;2023-04-03T12:26:05;3.37;;;1.60;;
11481;SDS011;5797;51.662;6.748;2023-04-03T12:28:48;3.27;;;1.30;;
11481;SDS011;5797;51.662;6.748;2023-04-03T12:31:18;2.73;;;1.40;;
11481;SDS011;5797;51.662;6.748;2023-04-03T12:33:57;3.13;;;1.20;;
11481;SDS011;5797;51.662;6.748;2023-04-03T12:36:32;3.87;;;1.50;;
11481;SDS011;5797;51.662;6.748;2023-04-03T12:45:39;2.87;;;1.30;;
11481;SDS011;5797;51.662;6.748;2023-04-03T12:48:12;2.03;;;1.33;;
11481;SDS011;5797;51.662;6.748;2023-04-03T12:50:45;3.37;;;1.30;;
11481;SDS011;5797;51.662;6.748;2023-04-03T12:53:16;4.00;;;1.20;;
11481;SDS011;5797;51.662;6.748;2023-04-03T12:55:48;2.57;;;1.40;;
11481;SDS011;5797;51.662;6.748;2023-04-03T12:58:22;1.57;;;1.30;;
11481;SDS011;5797;51.662;6.748;2023-04-03T13:00:58;2.57;;;1.40;;
11481;SDS011;5797;51.662;6.748;2023-04-03T13:03:28;3.73;;;1.30;;
11481;SDS011;5797;51.662;6.748;2023-04-03T13:05:57;3.30;;;1.20;;
11481;SDS011;5797;51.662;6.748;2023-04-03T13:08:27;3.17;;;1.17;;
11481;SDS011;5797;51.662;6.748;2023-04-03T13:10:58;1.63;;;1.07;;
11481;SDS011;5797;51.662;6.748;2023-04-03T13:13:28;1.60;;;1.40;;
11481;SDS011;5797;51.662;6.748;2023-04-03T13:15:57;4.47;;;1.57;;
11481;SDS011;5797;51.662;6.748;2023-04-03T13:18:27;2.40;;;1.30;;
11481;SDS011;5797;51.662;6.748;2023-04-03T13:21:01;2.57;;;1.20;;
11481;SDS011;5797;51.662;6.748;2023-04-03T13:23:31;1.50;;;1.20;;
11481;SDS011;5797;51.662;6.748;2023-04-03T13:26:04;1.93;;;1.33;;
11481;SDS011;5797;51.662;6.748;2023-04-03T13:28:33;2.30;;;1.30;;
11481;SDS011;5797;51.662;6.748;2023-04-03T13:31:04;3.93;;;1.40;;
11481;SDS011;5797;51.662;6.748;2023-04-03T13:33:37;3.17;;;1.20;;
11481;SDS011;5797;51.662;6.748;2023-04-03T13:36:07;1.67;;;1.30;;
11481;SDS011;5797;51.662;6.748;2023-04-03T13:38:36;3.17;;;1.33;;
11481;SDS011;5797;51.662;6.748;2023-04-03T13:43:52;1.30;;;1.10;;
11481;SDS011;5797;51.662;6.748;2023-04-03T13:46:29;3.13;;;1.20;;
11481;SDS011;5797;51.662;6.748;2023-04-03T13:48:57;2.67;;;1.30;;
11481;SDS011;5797;51.662;6.748;2023-04-03T13:51:27;2.47;;;1.10;;
11481;SDS011;5797;51.662;6.748;2023-04-03T13:53:57;2.10;;;1.30;;
11481;SDS011;5797;51.662;6.748;2023-04-03T13:56:31;1.43;;;1.10;;
11481;SDS011;5797;51.662;6.748;2023-04-03T13:59:03;3.03;;;1.30;;
11481;SDS011;5797;51.662;6.748;2023-04-03T14:01:43;2.53;;;1.20;;
11481;SDS011;5797;51.662;6.748;2023-04-03T14:04:14;2.70;;;1.30;;
11481;SDS011;5797;51.662;6.748;2023-04-03T14:06:45;2.60;;;1.40;;
11481;SDS011;5797;51.662;6.748;2023-04-03T14:09:14;3.20;;;1.20;;
11481;SDS011;5797;51.662;6.748;2023-04-03T14:11:44;3.03;;;1.47;;
11481;SDS011;5797;51.662;6.748;2023-04-03T14:14:15;3.00;;;1.40;;
11481;SDS011;5797;51.662;6.748;2023-04-03T14:16:47;3.90;;;1.47;;
11481;SDS011;5797;51.662;6.748;2023-04-03T14:19:19;1.70;;;1.20;;
11481;SDS011;5797;51.662;6.748;2023-04-03T14:21:49;6.83;;;1.70;;
11481;SDS011;5797;51.662;6.748;2023-04-03T14:24:19;4.63;;;1.27;;
11481;SDS011;5797;51.662;6.748;2023-04-03T14:26:50;4.37;;;1.40;;
11481;SDS011;5797;51.662;6.748;2023-04-03T14:29:22;2.63;;;1.40;;
11481;SDS011;5797;51.662;6.748;2023-04-03T14:31:50;3.57;;;1.60;;
11481;SDS011;5797;51.662;6.748;2023-04-03T14:34:29;2.13;;;1.10;;
11481;SDS011;5797;51.662;6.748;2023-04-03T14:36:58;2.77;;;1.50;;
11481;SDS011;5797;51.662;6.748;2023-04-03T14:39:26;2.27;;;1.10;;
11481;SDS011;5797;51.662;6.748;2023-04-03T14:41:56;2.40;;;1.30;;
11481;SDS011;5797;51.662;6.748;2023-04-03T14:44:25;2.90;;;1.33;;
11481;SDS011;5797;51.662;6.748;2023-04-03T14:46:54;3.53;;;1.50;;
11481;SDS011;5797;51.662;6.748;2023-04-03T14:49:24;3.47;;;1.73;;
11481;SDS011;5797;51.662;6.748;2023-04-03T14:51:55;4.63;;;1.37;;
11481;SDS011;5797;51.662;6.748;2023-04-03T14:54:24;2.90;;;1.23;;
11481;SDS011;5797;51.662;6.748;2023-04-03T14:56:55;5.00;;;1.30;;
11481;SDS011;5797;51.662;6.748;2023-04-03T14:59:26;1.90;;;1.40;;
11481;SDS011;5797;51.662;6.748;2023-04-03T15:01:54;3.53;;;1.40;;
11481;SDS011;5797;51.662;6.748;2023-04-03T15:04:23;4.00;;;1.40;;
11481;SDS011;5797;51.662;6.748;2023-04-03T15:06:52;2.20;;;1.27;;
11481;SDS011;5797;51.662;6.748;2023-04-03T15:09:22;7.67;;;1.50;;
11481;SDS011;5797;51.662;6.748;2023-04-03T15:11:52;2.67;;;1.50;;
11481;SDS011;5797;51.662;6.748;2023-04-03T15:14:23;3.03;;;1.60;;
11481;SDS011;5797;51.662;6.748;2023-04-03T15:17:01;2.80;;;1.43;;
11481;SDS011;5797;51.662;6.748;2023-04-03T15:19:30;3.60;;;1.43;;
11481;SDS011;5797;51.662;6.748;2023-04-03T15:21:59;5.73;;;1.73;;
11481;SDS011;5797;51.662;6.748;2023-04-03T15:24:28;6.57;;;1.43;;
11481;SDS011;5797;51.662;6.748;2023-04-03T15:26:56;1.53;;;1.40;;
11481;SDS011;5797;51.662;6.748;2023-04-03T15:29:26;3.93;;;1.60;;
11481;SDS011;5797;51.662;6.748;2023-04-03T15:31:55;3.53;;;1.70;;
11481;SDS011;5797;51.662;6.748;2023-04-03T15:34:23;3.70;;;1.50;;
11481;SDS011;5797;51.662;6.748;2023-04-03T15:36:52;3.20;;;1.30;;
11481;SDS011;5797;51.662;6.748;2023-04-03T15:39:20;3.20;;;1.80;;
11481;SDS011;5797;51.662;6.748;2023-04-03T15:41:50;2.57;;;1.33;;
11481;SDS011;5797;51.662;6.748;2023-04-03T15:44:19;2.60;;;1.20;;
11481;SDS011;5797;51.662;6.748;2023-04-03T15:46:49;1.83;;;1.50;;
11481;SDS011;5797;51.662;6.748;2023-04-03T15:49:18;3.50;;;1.37;;
11481;SDS011;5797;51.662;6.748;2023-04-03T15:51:47;5.10;;;1.70;;
11481;SDS011;5797;51.662;6.748;2023-04-03T15:54:15;3.07;;;1.37;;